createdAt,value
2019-02-25T00:00:06.084Z,28.95
2019-02-25T00:01:06.036Z,29.14
2019-02-25T00:02:05.995Z,28.95
2019-02-25T00:03:05.948Z,29.14
2019-02-25T00:04:05.900Z,29.05
2019-02-25T00:05:05.857Z,29.14
2019-02-25T00:06:05.813Z,28.95
2019-02-25T00:07:05.783Z,29.14
2019-02-25T00:08:05.725Z,29.34
2019-02-25T00:09:05.684Z,29.14
2019-02-25T00:10:05.632Z,29.53
2019-02-25T00:11:05.591Z,29.63
2019-02-25T00:12:05.558Z,29.34
2019-02-25T00:13:05.501Z,29.05
2019-02-25T00:14:05.458Z,29.34
2019-02-25T00:15:05.412Z,29.53
2019-02-25T00:16:05.369Z,29.63
2019-02-25T00:17:05.323Z,29.43
2019-02-25T00:18:05.279Z,29.43
2019-02-25T00:19:05.237Z,29.34
2019-02-25T00:20:05.197Z,29.34
2019-02-25T00:21:05.146Z,29.43
2019-02-25T00:22:05.102Z,29.43
2019-02-25T00:23:05.132Z,29.53
2019-02-25T00:24:05.013Z,29.34
2019-02-25T00:25:04.967Z,29.34
2019-02-25T00:26:04.928Z,29.34
2019-02-25T00:27:04.879Z,29.72
2019-02-25T00:28:04.833Z,29.63
2019-02-25T00:29:04.808Z,29.34
2019-02-25T00:30:04.743Z,29.72
2019-02-25T00:31:04.699Z,29.72
2019-02-25T00:32:04.656Z,29.34
2019-02-25T00:33:04.610Z,29.43
2019-02-25T00:34:04.564Z,29.43
2019-02-25T00:35:04.521Z,29.63
2019-02-25T00:36:04.477Z,29.34
2019-02-25T00:37:04.449Z,29.24
2019-02-25T00:38:04.394Z,29.24
2019-02-25T00:39:04.337Z,29.43
2019-02-25T00:40:04.298Z,29.43
2019-02-25T00:41:04.254Z,29.43
2019-02-25T00:42:04.208Z,29.34
2019-02-25T00:43:04.165Z,29.43
2019-02-25T00:44:04.121Z,29.34
2019-02-25T00:45:04.073Z,29.05
2019-02-25T00:46:04.078Z,29.72
2019-02-25T00:47:03.983Z,29.53
2019-02-25T00:48:03.948Z,29.43
2019-02-25T00:49:03.894Z,29.34
2019-02-25T00:50:03.853Z,29.72
2019-02-25T00:51:03.809Z,29.24
2019-02-25T00:52:03.763Z,29.43
2019-02-25T00:53:03.720Z,29.43
2019-02-25T00:54:03.675Z,29.72
2019-02-25T00:55:03.633Z,29.43
2019-02-25T00:56:03.588Z,29.63
2019-02-25T00:57:03.546Z,29.05
2019-02-25T00:58:03.503Z,29.14
2019-02-25T00:59:03.454Z,29.34
2019-02-25T01:00:03.407Z,29.43
2019-02-25T01:01:03.360Z,29.43
2019-02-25T01:02:03.316Z,29.43
2019-02-25T01:03:03.273Z,29.34
2019-02-25T01:04:03.227Z,29.72
2019-02-25T01:05:03.184Z,29.34
2019-02-25T01:06:03.139Z,29.72
2019-02-25T01:07:03.092Z,29.43
2019-02-25T01:08:03.043Z,29.05
2019-02-25T01:09:03.003Z,29.14
2019-02-25T01:10:02.957Z,28.95
2019-02-25T01:11:02.916Z,29.14
2019-02-25T01:12:02.870Z,29.05
2019-02-25T01:13:02.828Z,29.14
2019-02-25T01:14:02.782Z,29.14
2019-02-25T01:15:02.737Z,28.95
2019-02-25T01:16:02.694Z,29.05
2019-02-25T01:17:02.649Z,29.34
2019-02-25T01:18:02.602Z,29.14
2019-02-25T01:19:02.555Z,29.14
2019-02-25T01:20:02.513Z,28.95
2019-02-25T01:21:02.469Z,29.14
2019-02-25T01:22:02.418Z,29.43
2019-02-25T01:23:02.378Z,29.14
2019-02-25T01:24:02.332Z,29.05
2019-02-25T01:25:02.291Z,29.53
2019-02-25T01:26:02.246Z,29.63
2019-02-25T01:27:02.201Z,29.14
2019-02-25T01:28:02.153Z,29.43
2019-02-25T01:29:02.112Z,29.05
2019-02-25T01:30:02.086Z,29.05
2019-02-25T01:31:02.020Z,29.14
2019-02-25T01:32:02.010Z,29.72
2019-02-25T01:33:01.935Z,29.05
2019-02-25T01:34:01.887Z,29.05
2019-02-25T01:35:01.846Z,29.34
2019-02-25T01:36:01.800Z,29.63
2019-02-25T01:37:01.756Z,29.34
2019-02-25T01:38:01.710Z,29.34
2019-02-25T01:39:01.674Z,29.34
2019-02-25T01:40:01.621Z,29.34
2019-02-25T01:41:01.580Z,29.43
2019-02-25T01:42:01.529Z,29.63
2019-02-25T01:43:01.489Z,29.52
2019-02-25T01:44:01.443Z,29.34
2019-02-25T01:45:01.397Z,29.72
2019-02-25T01:46:01.347Z,29.63
2019-02-25T01:47:01.308Z,29.34
2019-02-25T01:48:01.262Z,29.34
2019-02-25T01:49:01.219Z,29.24
2019-02-25T01:50:01.173Z,29.63
2019-02-25T01:51:01.131Z,29.13
2019-02-25T01:52:01.090Z,29.34
2019-02-25T01:53:01.040Z,29.42
2019-02-25T01:54:00.991Z,29.63
2019-02-25T01:55:00.951Z,29.63
2019-02-25T01:56:00.911Z,29.63
2019-02-25T01:57:00.860Z,29.63
2019-02-25T01:58:00.816Z,28.94
2019-02-25T01:59:00.772Z,29.42
2019-02-25T02:00:00.731Z,29.43
2019-02-25T02:01:00.680Z,29.22
2019-02-25T02:02:00.642Z,29.32
2019-02-25T02:03:00.597Z,29.71
2019-02-25T02:04:00.555Z,29.32
2019-02-25T02:05:00.503Z,29.32
2019-02-25T02:06:00.461Z,29.42
2019-02-25T02:07:00.424Z,29.52
2019-02-25T02:08:00.378Z,29.03
2019-02-25T02:09:00.326Z,29.42
2019-02-25T02:10:00.304Z,29.42
2019-02-25T02:11:00.304Z,29.52
2019-02-25T02:12:00.203Z,29.32
2019-02-25T02:13:00.144Z,29.32
2019-02-25T02:14:00.125Z,29.03
2019-02-25T02:15:00.057Z,29.71
2019-02-25T02:16:00.011Z,29.32
2019-02-25T02:16:59.969Z,29.32
2019-02-25T02:17:59.922Z,29.32
2019-02-25T02:18:59.878Z,29.13
2019-02-25T02:19:59.830Z,29.13
2019-02-25T02:20:59.791Z,29.32
2019-02-25T02:21:59.742Z,29.34
2019-02-25T02:22:59.698Z,29.42
2019-02-25T02:23:59.655Z,29.52
2019-02-25T02:24:59.629Z,29.42
2019-02-25T02:25:59.568Z,29.52
2019-02-25T02:26:59.520Z,29.32
2019-02-25T02:27:59.490Z,29.43
2019-02-25T02:28:59.437Z,29.42
2019-02-25T02:29:59.385Z,29.22
2019-02-25T02:30:59.340Z,29.52
2019-02-25T02:31:59.297Z,29.52
2019-02-25T02:32:59.251Z,29.52
2019-02-25T02:33:59.209Z,29.52
2019-02-25T02:34:59.161Z,29.52
2019-02-25T02:35:59.123Z,29.22
2019-02-25T02:36:59.073Z,29.61
2019-02-25T02:37:59.026Z,29.13
2019-02-25T02:38:58.984Z,29.22
2019-02-25T02:39:58.940Z,29.61
2019-02-25T02:40:58.890Z,29.22
2019-02-25T02:41:58.851Z,29.32
2019-02-25T02:42:58.805Z,29.52
2019-02-25T02:43:58.765Z,29.52
2019-02-25T02:44:58.715Z,29.42
2019-02-25T02:45:58.686Z,29.32
2019-02-25T02:46:58.621Z,29.13
2019-02-25T02:47:58.582Z,29.61
2019-02-25T02:48:58.536Z,29.71
2019-02-25T02:49:58.502Z,29.42
2019-02-25T02:50:58.446Z,29.52
2019-02-25T02:51:58.399Z,29.32
2019-02-25T02:52:58.358Z,29.42
2019-02-25T02:53:58.311Z,29.42
2019-02-25T02:54:58.262Z,29.22
2019-02-25T02:55:58.223Z,29.32
2019-02-25T02:56:58.180Z,29.03
2019-02-25T02:57:58.141Z,29.32
2019-02-25T02:58:58.088Z,29.32
2019-02-25T02:59:58.045Z,29.03
2019-02-25T03:00:57.999Z,29.03
2019-02-25T03:01:57.956Z,29.52
2019-02-25T03:02:57.920Z,29.42
2019-02-25T03:03:57.864Z,29.52
2019-02-25T03:04:57.831Z,29.61
2019-02-25T03:05:57.777Z,29.03
2019-02-25T03:06:57.731Z,29.03
2019-02-25T03:07:57.690Z,29.03
2019-02-25T03:08:57.643Z,29.03
2019-02-25T03:09:58.866Z,29.03
2019-02-25T03:10:57.557Z,29.61
2019-02-25T03:11:57.509Z,29.32
2019-02-25T03:12:57.465Z,29.42
2019-02-25T03:13:57.416Z,29.22
2019-02-25T03:14:57.371Z,29.42
2019-02-25T03:15:57.329Z,29.42
2019-02-25T03:16:57.284Z,29.32
2019-02-25T03:17:57.238Z,29.61
2019-02-25T03:18:57.193Z,29.52
2019-02-25T03:19:57.151Z,29.03
2019-02-25T03:20:57.105Z,29.13
2019-02-25T03:21:57.063Z,29.52
2019-02-25T03:22:57.024Z,29.13
2019-02-25T03:23:56.970Z,29.52
2019-02-25T03:24:56.925Z,29.32
2019-02-25T03:25:56.880Z,29.03
2019-02-25T03:26:56.836Z,29.32
2019-02-25T03:27:56.793Z,29.52
2019-02-25T03:28:56.761Z,29.13
2019-02-25T03:29:56.697Z,29.61
2019-02-25T03:30:56.726Z,29.32
2019-02-25T03:31:56.656Z,29.52
2019-02-25T03:32:56.569Z,29.22
2019-02-25T03:33:56.522Z,29.71
2019-02-25T03:34:56.494Z,29.42
2019-02-25T03:35:56.432Z,29.42
2019-02-25T03:36:56.384Z,29.52
2019-02-25T03:37:56.344Z,29.42
2019-02-25T03:38:56.298Z,29.42
2019-02-25T03:39:56.252Z,29.32
2019-02-25T03:40:56.210Z,29.32
2019-02-25T03:41:56.163Z,29.32
2019-02-25T03:42:56.118Z,29.32
2019-02-25T03:43:56.074Z,29.32
2019-02-25T03:44:56.029Z,29.52
2019-02-25T03:45:55.986Z,29.32
2019-02-25T03:46:55.945Z,29.03
2019-02-25T03:47:55.897Z,29.32
2019-02-25T03:48:55.853Z,29.13
2019-02-25T03:49:55.805Z,29.52
2019-02-25T03:50:55.765Z,29.03
2019-02-25T03:51:55.716Z,29.42
2019-02-25T03:52:55.674Z,29.52
2019-02-25T03:53:55.629Z,29.52
2019-02-25T03:54:55.582Z,29.03
2019-02-25T03:55:55.537Z,29.52
2019-02-25T03:56:55.494Z,29.32
2019-02-25T03:57:55.450Z,29.22
2019-02-25T03:58:55.405Z,29.42
2019-02-25T03:59:55.362Z,29.42
2019-02-25T04:00:55.316Z,29.32
2019-02-25T04:01:55.270Z,29.22
2019-02-25T04:02:55.226Z,29.52
2019-02-25T04:03:55.176Z,29.22
2019-02-25T04:04:55.134Z,29.52
2019-02-25T04:05:55.089Z,29.52
2019-02-25T04:06:55.043Z,29.32
2019-02-25T04:07:55.002Z,29.52
2019-02-25T04:08:54.959Z,29.42
2019-02-25T04:09:54.912Z,29.42
2019-02-25T04:10:54.866Z,29.32
2019-02-25T04:11:54.827Z,29.32
2019-02-25T04:12:54.780Z,29.52
2019-02-25T04:13:54.731Z,29.52
2019-02-25T04:14:54.683Z,29.13
2019-02-25T04:15:54.642Z,29.32
2019-02-25T04:16:54.596Z,29.42
2019-02-25T04:17:54.565Z,29.32
2019-02-25T04:18:54.507Z,29.32
2019-02-25T04:19:54.468Z,29.32
2019-02-25T04:20:54.413Z,29.42
2019-02-25T04:21:54.373Z,29.32
2019-02-25T04:22:54.335Z,29.32
2019-02-25T04:23:54.279Z,29.32
2019-02-25T04:24:54.239Z,29.52
2019-02-25T04:25:54.199Z,29.13
2019-02-25T04:26:55.680Z,29.52
2019-02-25T04:27:54.114Z,29.52
2019-02-25T04:28:54.057Z,29.52
2019-02-25T04:29:54.030Z,29.42
2019-02-25T04:30:53.970Z,29.52
2019-02-25T04:31:53.923Z,29.32
2019-02-25T04:32:53.876Z,29.52
2019-02-25T04:33:53.838Z,29.32
2019-02-25T04:34:53.791Z,29.71
2019-02-25T04:35:53.746Z,29.32
2019-02-25T04:36:53.700Z,29.52
2019-02-25T04:37:53.654Z,29.32
2019-02-25T04:38:53.609Z,29.52
2019-02-25T04:39:53.564Z,29.13
2019-02-25T04:40:53.521Z,29.32
2019-02-25T04:41:53.489Z,29.13
2019-02-25T04:42:53.443Z,29.52
2019-02-25T04:43:53.392Z,29.52
2019-02-25T04:44:53.342Z,29.42
2019-02-25T04:45:53.304Z,29.32
2019-02-25T04:46:53.252Z,29.42
2019-02-25T04:47:53.207Z,29.52
2019-02-25T04:48:53.163Z,29.32
2019-02-25T04:49:53.118Z,29.32
2019-02-25T04:50:53.071Z,29.32
2019-02-25T04:51:53.031Z,29.52
2019-02-25T04:52:52.978Z,29.32
2019-02-25T04:53:52.938Z,29.52
2019-02-25T04:54:52.898Z,29.42
2019-02-25T04:55:52.846Z,29.60
2019-02-25T04:56:52.804Z,29.22
2019-02-25T04:57:52.760Z,29.61
2019-02-25T04:58:52.714Z,29.21
2019-02-25T04:59:52.669Z,29.61
2019-02-25T05:00:52.636Z,29.52
2019-02-25T05:01:52.581Z,29.50
2019-02-25T05:02:52.535Z,29.32
2019-02-25T05:03:52.495Z,29.52
2019-02-25T05:04:52.446Z,29.52
2019-02-25T05:05:52.398Z,29.32
2019-02-25T05:06:52.365Z,29.60
2019-02-25T05:07:52.311Z,29.50
2019-02-25T05:08:52.266Z,29.50
2019-02-25T05:09:52.222Z,29.13
2019-02-25T05:10:52.183Z,29.22
2019-02-25T05:11:52.131Z,29.11
2019-02-25T05:12:52.089Z,29.21
2019-02-25T05:13:52.041Z,29.61
2019-02-25T05:14:51.996Z,29.52
2019-02-25T05:15:51.955Z,29.32
2019-02-25T05:16:51.907Z,29.32
2019-02-25T05:17:51.863Z,29.42
2019-02-25T05:18:51.817Z,29.90
2019-02-25T05:19:51.773Z,29.61
2019-02-25T05:20:51.728Z,29.80
2019-02-25T05:21:51.686Z,29.61
2019-02-25T05:22:51.638Z,29.52
2019-02-25T05:23:51.594Z,29.52
2019-02-25T05:24:51.552Z,29.80
2019-02-25T05:25:51.502Z,29.80
2019-02-25T05:26:51.462Z,29.80
2019-02-25T05:27:51.428Z,29.90
2019-02-25T05:28:51.370Z,29.03
2019-02-25T05:29:51.374Z,28.45
2019-02-25T05:30:51.288Z,28.26
2019-02-25T05:31:51.230Z,28.07
2019-02-25T05:32:51.190Z,27.87
2019-02-25T05:33:51.157Z,28.07
2019-02-25T05:34:51.103Z,27.87
2019-02-25T05:35:51.054Z,27.39
2019-02-25T05:36:51.010Z,27.39
2019-02-25T05:37:50.965Z,27.20
2019-02-25T05:38:50.921Z,27.29
2019-02-25T05:39:50.882Z,27.39
2019-02-25T05:40:50.837Z,27.01
2019-02-25T05:41:50.788Z,27.49
2019-02-25T05:42:50.750Z,27.20
2019-02-25T05:43:50.694Z,26.91
2019-02-25T05:44:50.651Z,27.11
2019-02-25T05:45:50.616Z,27.39
2019-02-25T05:46:50.561Z,27.01
2019-02-25T05:47:50.517Z,27.87
2019-02-25T05:48:50.473Z,27.59
2019-02-25T05:49:50.428Z,27.39
2019-02-25T05:50:50.381Z,27.20
2019-02-25T05:51:50.337Z,26.91
2019-02-25T05:52:50.297Z,26.81
2019-02-25T05:53:50.246Z,26.72
2019-02-25T05:54:50.202Z,26.81
2019-02-25T05:55:50.158Z,26.72
2019-02-25T05:56:50.112Z,26.23
2019-02-25T05:57:50.075Z,26.33
2019-02-25T05:58:50.088Z,26.53
2019-02-25T05:59:49.982Z,27.11
2019-02-25T06:00:49.929Z,28.07
2019-02-25T06:01:49.889Z,27.11
2019-02-25T06:02:49.844Z,26.72
2019-02-25T06:03:49.800Z,27.87
2019-02-25T06:04:49.756Z,27.87
2019-02-25T06:05:49.715Z,27.11
2019-02-25T06:06:49.669Z,27.01
2019-02-25T06:07:49.624Z,26.72
2019-02-25T06:08:49.588Z,27.29
2019-02-25T06:09:49.537Z,27.87
2019-02-25T06:10:49.483Z,27.68
2019-02-25T06:11:49.440Z,28.16
2019-02-25T06:12:49.424Z,27.97
2019-02-25T06:13:49.354Z,28.07
2019-02-25T06:14:49.299Z,28.74
2019-02-25T06:15:51.323Z,27.78
2019-02-25T06:16:49.220Z,27.97
2019-02-25T06:17:49.172Z,28.36
2019-02-25T06:18:49.143Z,28.07
2019-02-25T06:19:49.083Z,28.16
2019-02-25T06:20:49.040Z,27.87
2019-02-25T06:21:48.993Z,27.78
2019-02-25T06:22:48.941Z,27.11
2019-02-25T06:23:48.904Z,27.29
2019-02-25T06:24:48.919Z,27.49
2019-02-25T06:25:48.819Z,27.29
2019-02-25T06:26:48.771Z,27.11
2019-02-25T06:27:48.722Z,27.29
2019-02-25T06:28:48.676Z,27.29
2019-02-25T06:29:48.634Z,26.91
2019-02-25T06:30:48.585Z,27.29
2019-02-25T06:31:48.546Z,27.78
2019-02-25T06:32:48.502Z,28.55
2019-02-25T06:33:48.461Z,28.64
2019-02-25T06:34:48.410Z,28.16
2019-02-25T06:35:48.368Z,27.87
2019-02-25T06:36:48.320Z,27.87
2019-02-25T06:37:48.287Z,27.87
2019-02-25T06:38:48.232Z,28.16
2019-02-25T06:39:48.192Z,27.59
2019-02-25T06:40:48.143Z,27.39
2019-02-25T06:41:48.099Z,26.62
2019-02-25T06:42:48.055Z,26.81
2019-02-25T06:43:48.009Z,26.43
2019-02-25T06:44:47.964Z,27.97
2019-02-25T06:45:47.918Z,28.45
2019-02-25T06:46:47.869Z,28.26
2019-02-25T06:47:47.829Z,28.64
2019-02-25T06:48:47.785Z,28.07
2019-02-25T06:49:47.748Z,28.64
2019-02-25T06:50:47.695Z,28.45
2019-02-25T06:51:47.656Z,28.07
2019-02-25T06:52:47.605Z,27.39
2019-02-25T06:53:47.560Z,27.11
2019-02-25T06:54:47.511Z,26.81
2019-02-25T06:55:47.470Z,26.81
2019-02-25T06:56:47.431Z,26.53
2019-02-25T06:57:47.385Z,27.97
2019-02-25T06:58:47.337Z,27.29
2019-02-25T06:59:47.288Z,28.16
2019-02-25T07:00:47.252Z,27.97
2019-02-25T07:01:47.215Z,28.07
2019-02-25T07:02:47.158Z,27.68
2019-02-25T07:03:47.112Z,27.68
2019-02-25T07:04:47.073Z,28.26
2019-02-25T07:05:47.028Z,28.36
2019-02-25T07:06:46.984Z,28.26
2019-02-25T07:07:46.950Z,28.07
2019-02-25T07:08:46.888Z,28.36
2019-02-25T07:09:46.844Z,28.07
2019-02-25T07:10:46.799Z,28.36
2019-02-25T07:11:46.757Z,28.64
2019-02-25T07:12:46.709Z,29.03
2019-02-25T07:13:46.677Z,28.55
2019-02-25T07:14:47.472Z,28.74
2019-02-25T07:15:46.592Z,29.03
2019-02-25T07:16:46.530Z,28.84
2019-02-25T07:17:46.485Z,28.85
2019-02-25T07:18:46.438Z,28.95
2019-02-25T07:19:46.395Z,27.98
2019-02-25T07:20:46.368Z,27.98
2019-02-25T07:21:46.320Z,28.37
2019-02-25T07:22:46.262Z,28.76
2019-02-25T07:23:46.218Z,29.13
2019-02-25T07:24:52.642Z,29.53
2019-02-25T07:25:46.127Z,29.34
2019-02-25T07:26:46.094Z,29.14
2019-02-25T07:27:46.033Z,29.24
2019-02-25T07:28:45.990Z,28.56
2019-02-25T07:29:45.945Z,27.12
2019-02-25T07:30:45.903Z,26.92
2019-02-25T07:31:45.856Z,26.15
2019-02-25T07:32:45.815Z,26.25
2019-02-25T07:33:45.768Z,26.25
2019-02-25T07:34:45.731Z,25.86
2019-02-25T07:35:45.678Z,27.50
2019-02-25T07:36:45.653Z,27.98
2019-02-25T07:37:45.591Z,28.37
2019-02-25T07:38:45.548Z,28.28
2019-02-25T07:39:45.501Z,28.18
2019-02-25T07:40:45.457Z,28.47
2019-02-25T07:41:45.410Z,28.37
2019-02-25T07:42:45.367Z,28.56
2019-02-25T07:43:45.321Z,28.28
2019-02-25T07:44:45.276Z,28.76
2019-02-25T07:45:45.247Z,28.76
2019-02-25T07:46:45.214Z,28.56
2019-02-25T07:47:45.146Z,28.95
2019-02-25T07:48:45.097Z,28.85
2019-02-25T07:49:45.059Z,28.37
2019-02-25T07:50:47.364Z,28.76
2019-02-25T07:51:44.970Z,28.85
2019-02-25T07:52:44.919Z,28.95
2019-02-25T07:53:44.879Z,29.05
2019-02-25T07:54:44.831Z,28.85
2019-02-25T07:55:44.788Z,28.95
2019-02-25T07:56:44.744Z,28.95
2019-02-25T07:57:44.707Z,28.08
2019-02-25T07:58:44.653Z,27.89
2019-02-25T07:59:44.609Z,28.56
2019-02-25T08:00:44.585Z,28.85
2019-02-25T08:01:44.520Z,28.76
2019-02-25T08:02:44.471Z,28.95
2019-02-25T08:03:44.433Z,29.05
2019-02-25T08:04:44.384Z,29.05
2019-02-25T08:05:44.354Z,28.85
2019-02-25T08:06:44.294Z,28.76
2019-02-25T08:07:44.252Z,28.66
2019-02-25T08:08:44.208Z,28.85
2019-02-25T08:09:44.178Z,28.76
2019-02-25T08:10:44.120Z,28.85
2019-02-25T08:11:44.074Z,28.95
2019-02-25T08:12:44.024Z,28.95
2019-02-25T08:13:43.980Z,28.95
2019-02-25T08:14:43.936Z,28.56
2019-02-25T08:15:43.911Z,28.76
2019-02-25T08:16:43.856Z,28.76
2019-02-25T08:17:43.800Z,28.95
2019-02-25T08:18:43.775Z,28.95
2019-02-25T08:19:43.713Z,28.76
2019-02-25T08:20:43.696Z,28.28
2019-02-25T08:21:43.628Z,28.56
2019-02-25T08:22:43.599Z,28.66
2019-02-25T08:23:43.534Z,28.66
2019-02-25T08:24:43.489Z,28.85
2019-02-25T08:25:43.446Z,28.85
2019-02-25T08:26:43.424Z,28.56
2019-02-25T08:27:43.355Z,28.95
2019-02-25T08:28:43.307Z,28.76
2019-02-25T08:29:43.263Z,28.85
2019-02-25T08:30:43.220Z,28.76
2019-02-25T08:31:43.184Z,28.76
2019-02-25T08:32:43.132Z,29.14
2019-02-25T08:33:43.085Z,29.14
2019-02-25T08:34:43.083Z,28.95
2019-02-25T08:35:43.001Z,28.95
2019-02-25T08:36:42.955Z,29.14
2019-02-25T08:37:42.912Z,28.95
2019-02-25T08:38:42.861Z,28.85
2019-02-25T08:39:42.820Z,29.14
2019-02-25T08:40:42.775Z,28.85
2019-02-25T08:41:42.732Z,28.85
2019-02-25T08:42:42.679Z,28.85
2019-02-25T08:43:42.640Z,28.85
2019-02-25T08:44:42.595Z,29.14
2019-02-25T08:45:42.553Z,29.63
2019-02-25T08:46:42.504Z,29.05
2019-02-25T08:47:42.468Z,29.63
2019-02-25T08:48:42.411Z,29.05
2019-02-25T08:49:42.372Z,28.95
2019-02-25T08:50:42.334Z,29.05
2019-02-25T08:51:42.282Z,29.05
2019-02-25T08:52:42.237Z,28.76
2019-02-25T08:53:42.205Z,29.14
2019-02-25T08:54:42.150Z,28.85
2019-02-25T08:55:42.104Z,28.85
2019-02-25T08:56:42.079Z,29.34
2019-02-25T08:57:42.013Z,29.63
2019-02-25T08:58:42.763Z,29.24
2019-02-25T08:59:41.924Z,29.34
2019-02-25T09:00:41.880Z,29.14
2019-02-25T09:01:41.832Z,29.43
2019-02-25T09:02:41.789Z,29.24
2019-02-25T09:03:41.743Z,29.34
2019-02-25T09:04:41.706Z,29.34
2019-02-25T09:05:41.650Z,29.24
2019-02-25T09:06:41.609Z,29.72
2019-02-25T09:07:42.782Z,29.34
2019-02-25T09:08:41.532Z,29.24
2019-02-25T09:09:41.477Z,29.43
2019-02-25T09:10:41.442Z,29.34
2019-02-25T09:11:41.388Z,29.43
2019-02-25T09:12:41.348Z,29.05
2019-02-25T09:13:41.300Z,29.34
2019-02-25T09:14:41.250Z,29.24
2019-02-25T09:15:41.212Z,29.34
2019-02-25T09:16:41.161Z,29.05
2019-02-25T09:17:41.118Z,29.34
2019-02-25T09:18:41.073Z,29.43
2019-02-25T09:19:41.031Z,29.34
2019-02-25T09:20:40.982Z,29.53
2019-02-25T09:21:40.939Z,29.34
2019-02-25T09:22:40.918Z,29.42
2019-02-25T09:23:40.850Z,29.34
2019-02-25T09:24:40.941Z,29.24
2019-02-25T09:25:40.759Z,29.53
2019-02-25T09:26:40.715Z,29.34
2019-02-25T09:27:40.671Z,29.24
2019-02-25T09:28:40.625Z,29.34
2019-02-25T09:29:40.582Z,29.53
2019-02-25T09:30:40.537Z,29.63
2019-02-25T09:31:40.496Z,29.52
2019-02-25T09:32:40.449Z,29.53
2019-02-25T09:33:40.400Z,29.24
2019-02-25T09:34:40.367Z,29.53
2019-02-25T09:35:40.314Z,29.42
2019-02-25T09:36:40.268Z,29.34
2019-02-25T09:37:40.221Z,29.53
2019-02-25T09:38:40.178Z,29.34
2019-02-25T09:39:40.131Z,29.52
2019-02-25T09:40:40.097Z,29.53
2019-02-25T09:41:40.043Z,29.63
2019-02-25T09:42:40.001Z,28.95
2019-02-25T09:43:39.955Z,29.14
2019-02-25T09:44:39.916Z,29.05
2019-02-25T09:45:39.863Z,29.53
2019-02-25T09:46:39.823Z,29.34
2019-02-25T09:47:39.775Z,29.34
2019-02-25T09:48:39.733Z,29.72
2019-02-25T09:49:39.688Z,29.43
2019-02-25T09:50:39.641Z,29.34
2019-02-25T09:51:39.618Z,29.14
2019-02-25T09:52:39.552Z,29.34
2019-02-25T09:53:39.504Z,29.53
2019-02-25T09:54:39.462Z,29.63
2019-02-25T09:55:39.418Z,29.43
2019-02-25T09:56:39.370Z,29.24
2019-02-25T09:57:39.331Z,29.34
2019-02-25T09:58:39.283Z,29.53
2019-02-25T09:59:39.241Z,29.34
2019-02-25T10:00:39.211Z,29.43
2019-02-25T10:01:39.186Z,29.53
2019-02-25T10:02:39.109Z,29.43
2019-02-25T10:03:39.063Z,29.63
2019-02-25T10:04:39.014Z,29.24
2019-02-25T10:05:38.975Z,29.63
2019-02-25T10:06:38.925Z,29.72
2019-02-25T10:07:38.880Z,29.43
2019-02-25T10:08:38.841Z,29.53
2019-02-25T10:09:38.809Z,29.53
2019-02-25T10:10:38.745Z,29.43
2019-02-25T10:11:38.710Z,29.53
2019-02-25T10:12:38.656Z,30.01
2019-02-25T10:13:38.615Z,29.72
2019-02-25T10:14:38.573Z,29.91
2019-02-25T10:15:38.535Z,29.82
2019-02-25T10:16:38.481Z,29.72
2019-02-25T10:17:38.450Z,29.72
2019-02-25T10:18:38.394Z,29.82
2019-02-25T10:19:38.345Z,29.82
2019-02-25T10:20:38.295Z,29.82
2019-02-25T10:21:38.252Z,29.91
2019-02-25T10:22:38.205Z,29.91
2019-02-25T10:23:38.168Z,29.82
2019-02-25T10:24:39.857Z,29.82
2019-02-25T10:25:38.077Z,29.72
2019-02-25T10:26:38.031Z,29.82
2019-02-25T10:27:37.992Z,29.72
2019-02-25T10:28:37.943Z,29.82
2019-02-25T10:29:37.900Z,29.72
2019-02-25T10:30:37.846Z,29.82
2019-02-25T10:31:39.568Z,29.72
2019-02-25T10:32:37.764Z,29.72
2019-02-25T10:33:37.715Z,29.82
2019-02-25T10:34:37.675Z,29.82
2019-02-25T10:35:37.627Z,29.72
2019-02-25T10:36:37.578Z,29.72
2019-02-25T10:37:38.778Z,29.63
2019-02-25T10:38:37.670Z,30.11
2019-02-25T10:39:37.439Z,30.21
2019-02-25T10:40:37.408Z,30.21
2019-02-25T10:41:37.360Z,30.21
2019-02-25T10:42:37.743Z,30.30
2019-02-25T10:43:37.269Z,30.30
2019-02-25T10:44:38.247Z,30.30
2019-02-25T10:45:38.926Z,30.11
2019-02-25T10:46:39.006Z,30.21
2019-02-25T10:47:37.097Z,30.11
2019-02-25T10:48:37.045Z,30.22
2019-02-25T10:49:37.003Z,30.21
2019-02-25T10:50:38.660Z,30.30
2019-02-25T10:51:38.803Z,30.21
2019-02-25T10:52:38.689Z,30.12
2019-02-25T10:53:36.823Z,30.21
2019-02-25T10:54:36.785Z,30.01
2019-02-25T10:55:36.732Z,30.21
2019-02-25T10:56:36.689Z,30.22
2019-02-25T10:57:36.651Z,30.12
2019-02-25T10:58:36.602Z,30.22
2019-02-25T10:59:36.917Z,30.41
2019-02-25T11:00:37.801Z,30.32
2019-02-25T11:01:37.513Z,30.32
2019-02-25T11:02:44.060Z,30.61
2019-02-25T11:03:36.376Z,30.12
2019-02-25T11:04:36.573Z,30.41
2019-02-25T11:05:36.288Z,30.41
2019-02-25T11:06:37.655Z,30.41
2019-02-25T11:07:37.319Z,30.41
2019-02-25T11:08:37.364Z,30.51
2019-02-25T11:09:36.108Z,30.32
2019-02-25T11:10:36.061Z,30.22
2019-02-25T11:11:36.022Z,30.32
2019-02-25T11:12:35.973Z,30.51
2019-02-25T11:13:36.714Z,30.22
2019-02-25T11:14:38.019Z,30.32
2019-02-25T11:15:37.497Z,30.03
2019-02-25T11:16:35.820Z,30.12
2019-02-25T11:17:35.750Z,30.12
2019-02-25T11:18:35.707Z,30.41
2019-02-25T11:19:35.665Z,30.51
2019-02-25T11:20:37.649Z,30.51
2019-02-25T11:21:37.528Z,30.32
2019-02-25T11:22:35.529Z,30.51
2019-02-25T11:23:35.483Z,30.59
2019-02-25T11:24:35.442Z,30.32
2019-02-25T11:25:35.393Z,30.61
2019-02-25T11:26:35.468Z,30.70
2019-02-25T11:27:35.910Z,30.70
2019-02-25T11:28:36.662Z,30.61
2019-02-25T11:29:35.216Z,30.61
2019-02-25T11:30:35.170Z,29.93
2019-02-25T11:31:35.123Z,30.70
2019-02-25T11:32:35.082Z,30.61
2019-02-25T11:33:35.053Z,30.61
2019-02-25T11:34:35.742Z,30.61
2019-02-25T11:35:36.619Z,30.61
2019-02-25T11:36:34.921Z,30.51
2019-02-25T11:37:34.850Z,30.61
2019-02-25T11:38:37.260Z,30.70
2019-02-25T11:39:36.724Z,30.70
2019-02-25T11:40:36.536Z,30.61
2019-02-25T11:41:36.555Z,30.61
2019-02-25T11:42:34.647Z,30.51
2019-02-25T11:43:34.621Z,30.80
2019-02-25T11:44:34.548Z,30.80
2019-02-25T11:45:36.258Z,30.51
2019-02-25T11:46:34.457Z,30.80
2019-02-25T11:47:34.415Z,30.80
2019-02-25T11:48:34.376Z,30.90
2019-02-25T11:49:34.323Z,30.80
2019-02-25T11:50:34.282Z,30.51
2019-02-25T11:51:34.236Z,30.80
2019-02-25T11:52:34.190Z,30.51
2019-02-25T11:53:34.145Z,30.99
2019-02-25T11:54:34.107Z,30.99
2019-02-25T11:55:34.066Z,30.99
2019-02-25T11:56:34.011Z,31.09
2019-02-25T11:57:33.966Z,30.90
2019-02-25T11:58:33.921Z,31.28
2019-02-25T11:59:33.879Z,30.80
2019-02-25T12:00:33.836Z,30.61
2019-02-25T12:01:33.790Z,30.22
2019-02-25T12:02:33.746Z,30.32
2019-02-25T12:03:33.699Z,30.32
2019-02-25T12:04:33.665Z,28.58
2019-02-25T12:05:33.611Z,29.83
2019-02-25T12:06:33.568Z,28.58
2019-02-25T12:07:33.523Z,29.45
2019-02-25T12:08:33.487Z,29.74
2019-02-25T12:09:33.434Z,30.03
2019-02-25T12:10:33.402Z,29.93
2019-02-25T12:11:33.339Z,29.83
2019-02-25T12:12:33.306Z,29.64
2019-02-25T12:13:33.391Z,28.39
2019-02-25T12:14:33.262Z,29.45
2019-02-25T12:15:33.179Z,26.75
2019-02-25T12:16:33.126Z,28.58
2019-02-25T12:17:33.082Z,29.74
2019-02-25T12:18:33.033Z,29.74
2019-02-25T12:19:32.989Z,29.64
2019-02-25T12:20:32.986Z,30.32
2019-02-25T12:21:32.900Z,30.12
2019-02-25T12:22:32.863Z,29.83
2019-02-25T12:23:32.811Z,30.12
2019-02-25T12:24:32.778Z,30.22
2019-02-25T12:25:32.734Z,30.22
2019-02-25T12:26:32.678Z,30.22
2019-02-25T12:27:32.648Z,30.22
2019-02-25T12:28:32.592Z,26.93
2019-02-25T12:29:32.574Z,28.29
2019-02-25T12:30:32.510Z,29.16
2019-02-25T12:31:32.455Z,29.08
2019-02-25T12:32:32.409Z,29.45
2019-02-25T12:33:32.368Z,29.45
2019-02-25T12:34:32.325Z,29.66
2019-02-25T12:35:32.296Z,29.56
2019-02-25T12:36:32.243Z,29.55
2019-02-25T12:37:32.211Z,29.56
2019-02-25T12:38:32.148Z,26.26
2019-02-25T12:39:32.113Z,25.68
2019-02-25T12:40:32.059Z,28.69
2019-02-25T12:41:32.009Z,29.35
2019-02-25T12:42:31.968Z,29.55
2019-02-25T12:43:31.929Z,29.64
2019-02-25T12:44:31.879Z,29.27
2019-02-25T12:45:31.836Z,28.11
2019-02-25T12:46:31.796Z,27.81
2019-02-25T12:47:31.749Z,28.58
2019-02-25T12:48:31.703Z,27.92
2019-02-25T12:49:31.664Z,27.34
2019-02-25T12:50:31.627Z,26.17
2019-02-25T12:51:31.564Z,26.08